Time;durP1;ratioP1;P1;durP2;ratioP2;P2;SDS_P1;SDS_P2;PMS_P1;PMS_P2;Temp;Humidity;BMP_temperature;BMP_pressure;BME280_temperature;BME280_humidity;BME280_pressure;Samples;Min_cycle;Max_cycle;Signal;HPM_P1;HPM_P2
2022/09/27 00:00:31;;;;;;;4.70;2.25;;;;;;;23.83;50.61;95759.88;5014126;28;20029;-34
2022/09/27 00:02:57;;;;;;;7.15;2.35;;;;;;;23.79;51.04;95759.44;5014023;28;20033;-34
2022/09/27 00:05:23;;;;;;;4.78;2.17;;;;;;;23.84;50.69;95744.03;5013767;28;20026;-33
2022/09/27 00:07:48;;;;;;;3.92;2.20;;;;;;;23.85;50.62;95746.25;5013935;28;20033;-34
2022/09/27 00:10:15;;;;;;;6.85;2.60;;;;;;;23.87;50.61;95749.22;5013666;28;20048;-33
2022/09/27 00:12:40;;;;;;;5.30;2.42;;;;;;;23.84;50.74;95755.84;5013016;28;20065;-34
2022/09/27 00:15:07;;;;;;;7.05;2.78;;;;;;;23.83;50.69;95751.56;5013693;28;20462;-33
2022/09/27 00:17:32;;;;;;;6.63;2.08;;;;;;;23.84;50.53;95750.31;5021663;28;20026;-34
2022/09/27 00:19:59;;;;;;;4.85;2.20;;;;;;;23.83;50.56;95748.81;5033521;28;20032;-33
2022/09/27 00:22:25;;;;;;;5.72;2.00;;;;;;;23.85;50.50;95757.34;5033322;28;20355;-35
2022/09/27 00:24:50;;;;;;;6.47;2.38;;;;;;;23.79;50.44;95762.22;5033300;28;20029;-34
2022/09/27 00:27:16;;;;;;;6.45;2.17;;;;;;;23.83;50.29;95754.34;5033275;28;20534;-33
2022/09/27 00:29:43;;;;;;;5.97;2.22;;;;;;;23.83;50.29;95754.34;5033407;28;20045;-34
2022/09/27 00:32:09;;;;;;;6.68;2.00;;;;;;;23.83;50.35;95754.34;5033345;28;20030;-35
2022/09/27 00:34:34;;;;;;;5.38;2.10;;;;;;;23.82;50.24;95747.31;5032879;28;20075;-34
2022/09/27 00:37:00;;;;;;;4.35;1.77;;;;;;;23.78;50.25;95738.56;5032908;28;20057;-34
2022/09/27 00:39:25;;;;;;;5.35;1.95;;;;;;;23.74;50.15;95735.34;5033086;28;20417;-35
2022/09/27 00:41:51;;;;;;;4.80;1.85;;;;;;;23.74;50.42;95740.91;5033013;28;20029;-34
2022/09/27 00:44:25;;;;;;;5.78;1.60;;;;;;;23.79;50.28;95745.59;5033169;28;20025;-34
2022/09/27 00:47:09;;;;;;;3.55;1.40;;;;;;;23.79;50.09;95740.06;5031103;28;20033;-33
2022/09/27 00:49:46;;;;;;;2.90;1.70;;;;;;;23.70;50.16;95743.25;5032887;28;20087;-35
2022/09/27 00:52:25;;;;;;;4.57;1.73;;;;;;;23.77;50.06;95733.56;5032996;28;20025;-34
2022/09/27 00:54:56;;;;;;;4.47;1.70;;;;;;;23.76;50.11;95732.81;5033170;28;20029;-34
2022/09/27 00:57:22;;;;;;;4.38;1.52;;;;;;;23.72;49.99;95732.41;5032793;28;20500;-34
2022/09/27 00:59:58;;;;;;;5.60;1.67;;;;;;;23.78;50.09;95729.50;5032452;28;20033;-34
2022/09/27 01:02:23;;;;;;;2.88;1.30;;;;;;;23.71;50.15;95725.38;5032741;28;20033;-34
2022/09/27 01:04:49;;;;;;;4.78;1.83;;;;;;;23.67;50.26;95724.94;5032494;28;20132;-34
2022/09/27 01:07:15;;;;;;;2.60;1.33;;;;;;;23.69;50.10;95722.38;5032709;28;20025;-34
2022/09/27 01:09:41;;;;;;;4.75;1.55;;;;;;;23.72;49.88;95726.88;5032486;28;20037;-34
2022/09/27 01:12:09;;;;;;;4.35;1.50;;;;;;;23.67;49.95;95719.38;5032269;28;20032;-34
2022/09/27 01:14:51;;;;;;;3.85;1.38;;;;;;;23.68;49.70;95718.13;5032583;28;20047;-34
2022/09/27 01:17:54;;;;;;;4.60;1.38;;;;;;;23.67;49.69;95708.31;5026449;28;20382;-34
2022/09/27 01:20:36;;;;;;;7.07;1.63;;;;;;;23.71;49.47;95694.16;5012749;28;20084;-34
2022/09/27 01:23:19;;;;;;;5.35;1.30;;;;;;;23.72;49.40;95674.25;5012541;28;20409;-34
2022/09/27 01:26:03;;;;;;;2.97;1.33;;;;;;;23.68;49.27;95673.81;5012454;28;20030;-34
2022/09/27 01:28:46;;;;;;;3.67;1.48;;;;;;;23.67;49.58;95658.50;5012400;28;20038;-34
2022/09/27 01:31:21;;;;;;;2.50;1.30;;;;;;;23.69;49.76;95669.03;5012312;28;20034;-34
2022/09/27 01:34:01;;;;;;;3.30;1.30;;;;;;;23.60;49.74;95668.19;5012558;28;20033;-34
2022/09/27 01:36:45;;;;;;;3.35;1.23;;;;;;;23.59;49.54;95666.69;5012207;28;20734;-34
2022/09/27 01:39:23;;;;;;;3.20;1.10;;;;;;;23.67;49.15;95672.34;5012393;28;20084;-34
2022/09/27 01:42:01;;;;;;;4.15;1.33;;;;;;;23.67;49.22;95669.56;5012312;28;20108;-34
2022/09/27 01:44:36;;;;;;;3.40;1.30;;;;;;;23.64;49.21;95668.59;5012289;28;20108;-34
2022/09/27 01:47:14;;;;;;;4.28;1.25;;;;;;;23.63;49.35;95660.81;5010594;28;20438;-34
2022/09/27 01:50:00;;;;;;;3.70;1.50;;;;;;;23.62;49.15;95662.09;5012164;28;20516;-34
2022/09/27 01:52:36;;;;;;;2.55;1.20;;;;;;;23.69;48.91;95652.44;5012150;28;20034;-35
2022/09/27 01:55:05;;;;;;;3.35;1.35;;;;;;;23.60;49.26;95642.53;5012038;28;20755;-34
2022/09/27 01:57:36;;;;;;;3.38;1.40;;;;;;;23.63;48.86;95639.44;5012098;28;20038;-35
2022/09/27 02:00:06;;;;;;;5.05;1.30;;;;;;;23.60;49.12;95646.03;5012040;28;20379;-34
2022/09/27 02:02:57;;;;;;;1.85;1.10;;;;;;;23.64;48.79;95651.25;5012190;28;20036;-34
2022/09/27 02:05:29;;;;;;;4.50;1.48;;;;;;;23.59;48.88;95641.03;5011417;28;20111;-34
2022/09/27 02:08:04;;;;;;;3.13;1.00;;;;;;;23.62;48.65;95645.50;5012359;28;20034;-34
2022/09/27 02:10:36;;;;;;;3.17;1.50;;;;;;;23.55;48.65;95646.88;5011558;28;20030;-33
2022/09/27 02:13:38;;;;;;;2.40;1.03;;;;;;;23.55;48.70;95637.84;5016332;28;20030;-34
2022/09/27 02:16:12;;;;;;;3.47;1.17;;;;;;;23.60;48.57;95648.06;5018153;28;20117;-34
2022/09/27 02:19:13;;;;;;;6.47;1.45;;;;;;;23.58;48.76;95645.81;5013619;28;20398;-34
2022/09/27 02:21:48;;;;;;;2.67;1.30;;;;;;;23.53;48.85;95637.63;5014076;28;20036;-34
2022/09/27 02:24:20;;;;;;;4.30;1.33;;;;;;;23.53;48.76;95637.63;5013647;28;20109;-34
2022/09/27 02:26:50;;;;;;;2.92;1.20;;;;;;;23.51;48.58;95635.38;5013567;28;20102;-34
2022/09/27 02:29:22;;;;;;;2.80;1.30;;;;;;;23.48;48.76;95636.44;5013693;28;20052;-34
2022/09/27 02:31:49;;;;;;;2.42;1.08;;;;;;;23.52;48.55;95636.13;5013521;28;20026;-34
2022/09/27 02:34:29;;;;;;;3.50;1.42;;;;;;;23.53;48.69;95635.59;5013700;28;20026;-34
2022/09/27 02:36:55;;;;;;;4.13;1.50;;;;;;;23.54;48.88;95634.31;5017501;28;20045;-33
2022/09/27 02:39:22;;;;;;;4.95;1.40;;;;;;;23.53;48.68;95643.16;5017314;28;20038;-34
2022/09/27 02:41:48;;;;;;;3.92;1.35;;;;;;;23.50;49.03;95633.09;5017287;28;20022;-34
2022/09/27 02:44:16;;;;;;;4.05;1.85;;;;;;;23.53;48.63;95626.53;5017226;28;20034;-33
2022/09/27 02:47:11;;;;;;;3.38;1.13;;;;;;;23.47;49.09;95625.88;5017102;28;20026;-33
2022/09/27 02:50:15;;;;;;;2.95;1.70;;;;;;;23.44;48.93;95624.19;5017690;28;20029;-34
2022/09/27 02:53:07;;;;;;;3.20;1.45;;;;;;;23.46;48.91;95624.41;5017097;28;20029;-34
2022/09/27 02:56:02;;;;;;;5.57;1.30;;;;;;;23.50;48.92;95628.34;5016951;28;20030;-34
2022/09/27 02:58:36;;;;;;;2.92;1.33;;;;;;;23.51;48.64;95618.78;5017096;28;20121;-34
2022/09/27 03:01:10;;;;;;;3.22;1.58;;;;;;;23.48;48.69;95619.81;5017093;28;20033;-34
2022/09/27 03:03:45;;;;;;;3.13;1.25;;;;;;;23.44;48.75;95615.88;5016935;28;20032;-34
2022/09/27 03:06:15;;;;;;;3.92;1.60;;;;;;;23.41;48.93;95625.22;5017086;28;20481;-33
2022/09/27 03:08:43;;;;;;;3.58;1.42;;;;;;;23.43;48.95;95625.44;5016663;28;20041;-34
2022/09/27 03:11:08;;;;;;;4.43;1.60;;;;;;;23.46;48.37;95616.09;5016852;28;20102;-34
2022/09/27 03:13:37;;;;;;;2.05;1.30;;;;;;;23.42;48.62;95626.72;5016619;28;20489;-34
2022/09/27 03:16:05;;;;;;;5.75;1.88;;;;;;;23.43;48.92;95628.22;5016561;28;20029;-34
2022/09/27 03:18:32;;;;;;;3.58;1.48;;;;;;;23.40;48.82;95623.75;5016475;28;20041;-34
2022/09/27 03:20:57;;;;;;;3.85;1.48;;;;;;;23.38;48.88;95623.53;5016511;28;20562;-34
2022/09/27 03:23:23;;;;;;;2.97;1.25;;;;;;;23.38;48.79;95617.97;5016470;28;20126;-34
2022/09/27 03:25:49;;;;;;;4.13;1.55;;;;;;;23.43;48.41;95628.22;5016349;28;20106;-34
2022/09/27 03:28:15;;;;;;;3.47;1.20;;;;;;;23.37;48.67;95613.75;5016398;28;20022;-34
2022/09/27 03:30:43;;;;;;;4.40;1.63;;;;;;;23.34;48.60;95617.56;5015057;28;20607;-34
2022/09/27 03:33:08;;;;;;;4.43;1.40;;;;;;;23.31;48.70;95621.41;5016525;28;20029;-34
2022/09/27 03:35:34;;;;;;;2.78;1.70;;;;;;;23.37;48.78;95616.53;5016243;28;20018;-34
2022/09/27 03:38:00;;;;;;;4.70;1.38;;;;;;;23.38;48.49;95617.97;5014892;28;20429;-34
2022/09/27 03:40:25;;;;;;;2.75;1.33;;;;;;;23.39;48.89;95606.38;5016345;28;20032;-34
2022/09/27 03:42:51;;;;;;;4.60;1.20;;;;;;;23.40;48.66;95607.88;5016087;28;20052;-34
2022/09/27 03:45:17;;;;;;;3.67;1.40;;;;;;;23.36;48.69;95601.94;5015869;28;20060;-34
2022/09/27 03:47:43;;;;;;;3.42;1.30;;;;;;;23.41;48.16;95609.38;5015208;28;20036;-34
2022/09/27 03:50:10;;;;;;;3.95;1.60;;;;;;;23.36;48.71;95609.50;5016131;28;20026;-35
2022/09/27 03:52:36;;;;;;;3.08;1.30;;;;;;;23.31;48.66;95605.53;5014821;28;20112;-34
2022/09/27 03:55:01;;;;;;;4.15;1.50;;;;;;;23.43;48.37;95597.78;5016067;28;20105;-34
2022/09/27 03:57:28;;;;;;;3.13;1.65;;;;;;;23.35;48.33;95591.41;5016016;28;20033;-34
2022/09/27 03:59:53;;;;;;;3.55;1.40;;;;;;;23.37;48.54;95599.91;5015916;28;20028;-34
2022/09/27 04:02:18;;;;;;;2.60;1.63;;;;;;;23.31;48.38;95602.03;5015755;28;20025;-34
2022/09/27 04:04:44;;;;;;;3.85;1.42;;;;;;;23.37;48.30;95597.16;5015589;28;20118;-34
2022/09/27 04:07:09;;;;;;;4.20;1.65;;;;;;;23.33;48.45;95591.94;5015821;28;20022;-33
2022/09/27 04:09:36;;;;;;;4.03;1.60;;;;;;;23.29;48.60;95589.47;5014332;28;20435;-33
2022/09/27 04:12:03;;;;;;;5.35;1.80;;;;;;;23.39;48.17;95600.09;5015334;28;20097;-33
2022/09/27 04:14:28;;;;;;;4.43;1.40;;;;;;;23.36;48.38;95590.13;5031640;28;20021;-33
2022/09/27 04:16:54;;;;;;;3.20;1.30;;;;;;;23.32;48.40;95595.22;5026127;28;20022;-33
2022/09/27 04:19:20;;;;;;;3.10;1.40;;;;;;;23.23;48.88;95582.56;5015615;28;20030;-34
2022/09/27 04:21:45;;;;;;;3.95;1.30;;;;;;;23.23;48.66;95574.25;5015322;28;20033;-35
2022/09/27 04:24:11;;;;;;;3.83;1.40;;;;;;;23.24;48.71;95562.63;5015236;28;20030;-34
2022/09/27 04:26:38;;;;;;;6.05;1.63;;;;;;;23.26;48.73;95568.41;5015382;28;20034;-34
2022/09/27 04:29:04;;;;;;;4.45;1.55;;;;;;;23.35;48.42;95572.78;5015210;28;20490;-34
2022/09/27 04:31:30;;;;;;;5.18;1.75;;;;;;;23.35;48.20;95580.34;5015457;28;20030;-34
2022/09/27 04:33:55;;;;;;;5.03;1.50;;;;;;;23.35;48.36;95578.31;5015165;28;20021;-34
2022/09/27 04:36:28;;;;;;;3.75;1.38;;;;;;;23.32;48.07;95576.59;5015016;28;20026;-32
2022/09/27 04:38:55;;;;;;;4.68;1.52;;;;;;;23.32;47.88;95571.06;5015049;28;20025;-34
2022/09/27 04:41:22;;;;;;;5.43;1.75;;;;;;;23.25;48.11;95583.50;5014844;28;20079;-34
2022/09/27 04:43:52;;;;;;;4.05;1.40;;;;;;;23.31;47.92;95582.66;5015046;28;20034;-34
2022/09/27 04:46:17;;;;;;;3.70;1.50;;;;;;;23.28;48.18;95578.94;5014828;28;20520;-34
2022/09/27 04:48:43;;;;;;;3.15;1.58;;;;;;;23.25;48.03;95580.72;5015031;28;20108;-34
2022/09/27 04:51:09;;;;;;;4.55;1.42;;;;;;;23.25;48.04;95574.44;5014904;28;20101;-33
2022/09/27 04:53:34;;;;;;;4.15;1.75;;;;;;;23.22;47.91;95570.75;5014776;28;20044;-34
2022/09/27 04:56:01;;;;;;;4.43;1.63;;;;;;;23.23;48.12;95580.53;5014866;28;20359;-34
2022/09/27 04:58:27;;;;;;;2.20;1.00;;;;;;;23.26;48.17;95578.72;5014329;28;20021;-34
2022/09/27 05:00:54;;;;;;;3.70;1.52;;;;;;;23.27;48.25;95569.13;5014716;28;20024;-34
2022/09/27 05:03:20;;;;;;;4.57;1.70;;;;;;;23.32;47.77;95567.56;5014585;28;20052;-34
2022/09/27 05:05:46;;;;;;;5.75;1.80;;;;;;;23.24;48.19;95568.19;5014535;28;20057;-34
2022/09/27 05:08:12;;;;;;;3.55;1.60;;;;;;;23.26;48.10;95565.63;5014698;28;20064;-34
2022/09/27 05:10:37;;;;;;;4.18;2.03;;;;;;;23.33;47.54;95575.31;5014535;28;20036;-34
2022/09/27 05:13:03;;;;;;;4.43;1.40;;;;;;;23.26;48.01;95579.47;5014697;28;20029;-33
2022/09/27 05:15:28;;;;;;;5.75;1.65;;;;;;;23.34;47.50;95576.81;5014836;28;20442;-34
2022/09/27 05:17:53;;;;;;;5.22;1.40;;;;;;;23.24;47.58;95579.25;5014570;28;20481;-34
2022/09/27 05:20:19;;;;;;;3.95;1.58;;;;;;;23.21;47.80;95590.63;5014168;28;20417;-34
2022/09/27 05:22:45;;;;;;;2.75;1.30;;;;;;;23.22;48.08;95597.66;5014689;28;20466;-34
2022/09/27 05:25:11;;;;;;;4.28;1.92;;;;;;;23.24;47.73;95595.84;5014086;28;20033;-34
2022/09/27 05:27:36;;;;;;;3.65;1.58;;;;;;;23.26;47.77;95592.53;5014326;28;20037;-34
2022/09/27 05:30:03;;;;;;;4.35;1.30;;;;;;;23.25;48.03;95591.78;5014127;28;20026;-33
2022/09/27 05:32:28;;;;;;;3.92;1.50;;;;;;;23.25;47.86;95585.53;5014167;28;20087;-34
2022/09/27 05:34:54;;;;;;;4.30;1.40;;;;;;;23.21;47.81;95579.56;5014008;28;20022;-34
2022/09/27 05:37:20;;;;;;;4.18;1.67;;;;;;;23.27;47.96;95583.72;5013990;28;20052;-34
2022/09/27 05:39:46;;;;;;;4.10;1.38;;;;;;;23.26;48.00;95587.75;5013965;28;20030;-34
2022/09/27 05:42:14;;;;;;;5.22;1.40;;;;;;;23.33;47.69;95589.16;5013828;28;20051;-34
2022/09/27 05:44:40;;;;;;;4.25;1.80;;;;;;;23.27;47.99;95589.25;5013758;28;20487;-34
2022/09/27 05:47:05;;;;;;;3.35;2.00;;;;;;;23.26;47.84;95590.53;5014030;28;20026;-34
2022/09/27 05:49:31;;;;;;;4.43;1.92;;;;;;;23.23;47.79;95591.59;5013972;28;20028;-34
2022/09/27 05:51:57;;;;;;;4.07;1.77;;;;;;;23.24;47.89;95587.53;5013853;28;20029;-34
2022/09/27 05:54:22;;;;;;;6.90;1.95;;;;;;;23.22;47.88;95581.06;5014218;28;20423;-34
2022/09/27 05:56:48;;;;;;;5.32;2.25;;;;;;;23.20;47.91;95583.63;5013933;28;20022;-34
2022/09/27 05:59:13;;;;;;;9.65;2.85;;;;;;;23.19;48.13;95576.59;5014037;28;20104;-34
2022/09/27 06:01:39;;;;;;;5.18;1.80;;;;;;;23.17;48.50;95579.13;5013814;28;20467;-34
2022/09/27 06:04:04;;;;;;;4.63;1.73;;;;;;;23.23;47.97;95574.25;5012248;28;20029;-34
2022/09/27 06:06:32;;;;;;;4.97;1.98;;;;;;;23.17;48.43;95577.13;5021923;28;20029;-34
2022/09/27 06:08:59;;;;;;;5.20;1.70;;;;;;;23.17;48.43;95574.34;5032953;28;20075;-34
2022/09/27 06:11:26;;;;;;;4.20;1.63;;;;;;;23.10;48.78;95563.19;5033070;28;20025;-34
2022/09/27 06:13:51;;;;;;;7.10;1.95;;;;;;;23.18;48.70;95573.06;5033411;28;20378;-34
2022/09/27 06:16:17;;;;;;;4.57;1.92;;;;;;;23.12;48.75;95577.94;5033174;28;20029;-34
2022/09/27 06:18:42;;;;;;;6.18;2.22;;;;;;;23.11;48.91;95576.47;5033367;28;20068;-34
2022/09/27 06:21:08;;;;;;;6.45;1.67;;;;;;;23.19;48.53;95576.59;5033565;28;20036;-34
2022/09/27 06:23:34;;;;;;;4.97;1.80;;;;;;;23.22;48.38;95587.34;5033209;28;20493;-34
2022/09/27 06:26:05;;;;;;;4.88;1.80;;;;;;;23.17;48.90;95584.66;5033223;28;20466;-34
2022/09/27 06:28:31;;;;;;;3.55;1.50;;;;;;;23.10;49.33;95588.81;5033248;28;20117;-34
2022/09/27 06:30:59;;;;;;;4.75;1.60;;;;;;;23.12;48.85;95600.06;5033565;28;20025;-35
2022/09/27 06:33:26;;;;;;;3.70;1.75;;;;;;;22.99;49.53;95613.91;5033129;28;20036;-34
2022/09/27 06:35:52;;;;;;;4.60;1.27;;;;;;;23.01;49.43;95614.09;5033182;28;20032;-34
2022/09/27 06:38:20;;;;;;;7.63;1.65;;;;;;;23.03;49.30;95614.31;5032943;28;20401;-34
2022/09/27 06:40:45;;;;;;;3.75;1.30;;;;;;;22.87;50.07;95613.31;5030179;28;20025;-34
2022/09/27 06:43:16;;;;;;;5.88;1.40;;;;;;;22.86;49.91;95613.88;5031253;28;20466;-34
2022/09/27 06:45:42;;;;;;;4.75;1.90;;;;;;;22.93;50.12;95611.22;5031365;28;20029;-34
2022/09/27 06:48:11;;;;;;;4.57;1.63;;;;;;;22.74;50.35;95610.50;5031244;28;20029;-34
2022/09/27 06:50:38;;;;;;;3.00;1.90;;;;;;;22.86;50.56;95622.16;5030001;28;20109;-34
2022/09/27 06:53:05;;;;;;;4.32;1.48;;;;;;;22.93;50.45;95624.28;5015365;28;20037;-34
2022/09/27 06:55:31;;;;;;;2.28;1.50;;;;;;;22.89;50.39;95626.63;5009894;28;20034;-34
2022/09/27 07:00:47;;;;;;;3.95;1.30;;;;;;;22.86;50.42;95630.47;5011308;28;20037;-34
2022/09/27 07:03:13;;;;;;;3.20;1.58;;;;;;;22.99;50.08;95627.72;5025696;28;20049;-34
2022/09/27 07:05:42;;;;;;;5.53;1.50;;;;;;;23.04;50.28;95624.13;5019087;28;20041;-34
2022/09/27 07:08:11;;;;;;;3.20;1.27;;;;;;;23.06;50.36;95627.09;5010137;28;20096;-33
2022/09/27 07:10:38;;;;;;;4.60;2.10;;;;;;;23.14;49.93;95624.44;5012614;28;20033;-34
2022/09/27 07:13:08;;;;;;;5.75;1.50;;;;;;;23.00;50.42;95631.97;5014672;28;20036;-34
2022/09/27 07:15:37;;;;;;;4.53;1.42;;;;;;;22.89;51.08;95630.13;5010444;28;20470;-33
2022/09/27 07:18:04;;;;;;;4.55;1.60;;;;;;;22.96;50.77;95625.28;5015389;28;20048;-34
2022/09/27 07:20:31;;;;;;;3.63;1.23;;;;;;;22.85;51.10;95628.97;5016311;28;20095;-34
2022/09/27 07:22:57;;;;;;;2.60;1.48;;;;;;;22.77;51.17;95623.28;5014890;28;20463;-33
2022/09/27 07:25:24;;;;;;;5.25;1.40;;;;;;;22.81;50.93;95634.78;5014506;28;20084;-34
2022/09/27 07:27:51;;;;;;;4.50;1.50;;;;;;;22.91;51.66;95641.41;5015601;28;20028;-34
2022/09/27 07:30:17;;;;;;;4.32;1.42;;;;;;;22.95;50.70;95641.13;5034382;28;20021;-34
2022/09/27 07:32:43;;;;;;;3.85;1.40;;;;;;;22.76;51.63;95641.13;5032530;28;20029;-33
2022/09/27 07:35:11;;;;;;;3.65;1.35;;;;;;;22.87;51.64;95645.78;5016189;28;20028;-34
2022/09/27 07:37:37;;;;;;;3.22;1.25;;;;;;;22.87;51.94;95645.78;5016316;28;20097;-34
2022/09/27 07:40:06;;;;;;;6.00;1.75;;;;;;;22.14;54.57;95637.72;5016047;28;20101;-32
2022/09/27 07:42:32;;;;;;;3.92;1.52;;;;;;;21.71;57.32;95641.25;5015360;28;20473;-34
2022/09/27 07:44:57;;;;;;;6.00;1.60;;;;;;;22.30;55.47;95642.28;5016233;28;20105;-34
2022/09/27 07:47:24;;;;;;;5.30;1.50;;;;;;;22.70;54.24;95642.47;5016091;28;20118;-34
2022/09/27 07:49:51;;;;;;;6.00;1.70;;;;;;;22.81;53.35;95636.81;5015970;28;20080;-34
2022/09/27 07:52:20;;;;;;;2.40;1.35;;;;;;;22.73;53.92;95630.38;5016085;28;20072;-34
2022/09/27 07:54:46;;;;;;;3.42;1.45;;;;;;;22.73;53.43;95631.13;5015920;28;20044;-34
2022/09/27 07:57:13;;;;;;;4.95;1.10;;;;;;;22.80;53.15;95636.06;5015930;28;20455;-34
2022/09/27 07:59:39;;;;;;;3.20;1.35;;;;;;;22.79;52.85;95639.34;5016361;28;20120;-34
2022/09/27 08:02:05;;;;;;;2.63;1.35;;;;;;;23.00;52.25;95639.50;5015731;28;20026;-34
2022/09/27 08:04:31;;;;;;;4.18;1.15;;;;;;;22.95;52.45;95638.34;5015611;28;20033;-34
2022/09/27 08:06:56;;;;;;;3.63;1.17;;;;;;;22.94;52.35;95634.09;5015795;28;20025;-34
2022/09/27 08:09:22;;;;;;;4.88;1.13;;;;;;;22.91;52.29;95646.19;5015789;28;20026;-34
2022/09/27 08:11:47;;;;;;;4.10;1.17;;;;;;;22.81;52.38;95639.56;5015793;28;20025;-34
2022/09/27 08:14:13;;;;;;;3.55;1.08;;;;;;;22.85;52.43;95646.28;5014998;28;20024;-34
2022/09/27 08:16:40;;;;;;;3.63;1.08;;;;;;;22.86;52.43;95660.88;5015051;28;20462;-34
2022/09/27 08:19:05;;;;;;;3.05;1.20;;;;;;;23.03;51.49;95653.03;5015490;28;20118;-34
2022/09/27 08:21:31;;;;;;;3.22;1.17;;;;;;;22.72;52.04;95651.75;5015343;28;20101;-34
2022/09/27 08:23:58;;;;;;;4.45;1.02;;;;;;;22.83;51.92;95651.59;5015295;28;20363;-34
2022/09/27 08:26:23;;;;;;;3.30;1.15;;;;;;;23.07;51.16;95647.94;5015453;28;20029;-34
2022/09/27 08:28:49;;;;;;;3.20;1.17;;;;;;;22.95;51.37;95652.16;5015641;28;20033;-34
2022/09/27 08:31:14;;;;;;;4.32;1.27;;;;;;;23.02;51.60;95650.78;5015288;28;20075;-34
2022/09/27 08:33:40;;;;;;;2.03;1.10;;;;;;;22.83;51.52;95648.84;5014765;28;20105;-35
2022/09/27 08:36:11;;;;;;;2.20;1.10;;;;;;;22.83;51.72;95640.53;5014977;28;20376;-34
2022/09/27 08:38:37;;;;;;;3.13;1.05;;;;;;;22.85;51.80;95645.56;5015099;28;20064;-34
2022/09/27 08:41:15;;;;;;;3.67;1.30;;;;;;;22.92;51.29;95642.91;5015110;28;20360;-34
2022/09/27 08:43:59;;;;;;;5.68;1.48;;;;;;;22.61;51.68;95646.38;5014936;28;20112;-35
2022/09/27 08:46:37;;;;;;;4.43;1.20;;;;;;;22.71;51.58;95655.78;5014877;28;20022;-34
2022/09/27 08:49:18;;;;;;;2.72;1.10;;;;;;;22.78;51.23;95648.91;5015130;28;20032;-34
2022/09/27 08:51:49;;;;;;;2.80;1.13;;;;;;;22.83;51.21;95661.91;5014104;28;20053;-34
2022/09/27 08:54:30;;;;;;;1.63;0.93;;;;;;;22.66;51.48;95648.31;5014834;28;20117;-34
2022/09/27 08:57:10;;;;;;;4.78;1.35;;;;;;;22.79;51.03;95655.94;5014827;28;20406;-34
2022/09/27 08:59:40;;;;;;;3.03;1.50;;;;;;;22.80;50.63;95641.59;5014758;28;20030;-34
2022/09/27 09:02:26;;;;;;;3.15;1.60;;;;;;;22.99;49.98;95638.78;5014752;28;20029;-35
2022/09/27 09:05:06;;;;;;;3.97;1.83;;;;;;;22.87;50.24;95640.25;5014633;28;20046;-34
2022/09/27 09:07:55;;;;;;;2.83;1.50;;;;;;;22.90;50.02;95636.41;5014540;28;20116;-34
2022/09/27 09:14:08;;;;;;;4.95;1.20;;;;;;;22.46;50.01;95624.00;5014454;28;20036;-34
2022/09/27 09:16:51;;;;;;;4.55;1.50;;;;;;;22.43;50.04;95647.13;5014614;28;20030;-35
2022/09/27 09:19:46;;;;;;;3.20;1.30;;;;;;;22.72;49.49;95628.88;5014584;28;20038;-34
2022/09/27 09:22:18;;;;;;;9.32;1.40;;;;;;;22.85;49.15;95628.97;5014478;28;20497;-35
2022/09/27 09:24:44;;;;;;;4.05;1.30;;;;;;;22.73;49.26;95633.16;5014297;28;20092;-35
2022/09/27 09:27:38;;;;;;;2.05;1.23;;;;;;;22.61;49.26;95642.88;5014204;28;20471;-34
2022/09/27 09:30:21;;;;;;;2.70;1.08;;;;;;;22.48;49.09;95633.25;5014345;28;20025;-34
2022/09/27 09:33:14;;;;;;;3.70;1.20;;;;;;;22.74;49.04;95629.13;5018740;28;20128;-34
2022/09/27 09:35:47;;;;;;;2.17;1.20;;;;;;;22.73;48.81;95635.91;5032366;28;20107;-34
2022/09/27 09:38:39;;;;;;;2.97;1.52;;;;;;;22.91;48.44;95621.31;5033273;28;20048;-34
2022/09/27 09:41:14;;;;;;;4.05;1.30;;;;;;;22.83;48.49;95612.16;5034013;28;20512;-34
2022/09/27 09:43:49;;;;;;;3.00;1.30;;;;;;;22.78;48.53;95615.75;5033681;28;20056;-34
2022/09/27 09:46:29;;;;;;;2.35;1.20;;;;;;;22.88;48.35;95614.06;5033493;28;20489;-34
2022/09/27 09:49:11;;;;;;;4.13;1.23;;;;;;;22.51;48.81;95612.84;5033746;28;20029;-34
2022/09/27 09:51:43;;;;;;;4.68;1.42;;;;;;;22.61;49.09;95601.44;5033969;28;20029;-34
2022/09/27 09:54:30;;;;;;;5.35;1.17;;;;;;;22.57;48.29;95630.09;5033608;28;20104;-34
2022/09/27 09:57:03;;;;;;;4.45;1.15;;;;;;;22.65;48.14;95591.53;5033623;28;20067;-34
2022/09/27 09:59:37;;;;;;;3.35;1.10;;;;;;;22.78;47.70;95596.38;5033496;28;20025;-34
2022/09/27 10:02:41;;;;;;;3.63;1.00;;;;;;;22.83;47.75;95598.34;5033351;28;20025;-34
2022/09/27 10:05:12;;;;;;;3.40;1.33;;;;;;;22.73;47.94;95605.50;5033382;28;20033;-34
2022/09/27 10:07:38;;;;;;;2.40;1.15;;;;;;;22.74;48.12;95593.94;5032479;28;20025;-34
2022/09/27 10:10:06;;;;;;;2.25;0.98;;;;;;;22.55;48.73;95609.78;5033498;28;20053;-34
2022/09/27 10:12:32;;;;;;;3.20;1.48;;;;;;;22.62;47.49;95592.63;5033565;28;20030;-34
2022/09/27 10:15:01;;;;;;;3.40;1.10;;;;;;;22.84;47.72;95594.28;5033187;28;20362;-34
2022/09/27 10:17:40;;;;;;;2.17;1.05;;;;;;;22.80;47.34;95593.84;5033295;28;20056;-34
2022/09/27 10:20:07;;;;;;;3.92;0.98;;;;;;;22.95;47.44;95585.06;5033453;28;20473;-34
2022/09/27 10:22:37;;;;;;;3.38;1.02;;;;;;;22.85;47.30;95590.25;5033330;28;20029;-34
2022/09/27 10:25:07;;;;;;;4.07;0.98;;;;;;;22.95;47.23;95585.81;5031878;28;20032;-34
2022/09/27 10:27:45;;;;;;;1.88;0.80;;;;;;;22.98;47.36;95578.47;5033247;28;20108;-35
2022/09/27 10:30:32;;;;;;;4.63;0.90;;;;;;;23.03;47.47;95581.13;5033168;28;20055;-34
2022/09/27 10:33:17;;;;;;;7.57;1.50;;;;;;;22.52;47.27;95583.94;5033441;28;20477;-34
2022/09/27 10:35:48;;;;;;;3.72;1.30;;;;;;;22.32;47.46;95576.22;5033371;28;20048;-34
2022/09/27 10:38:34;;;;;;;6.10;0.95;;;;;;;22.65;47.74;95586.00;5033558;28;20045;-34
2022/09/27 10:41:30;;;;;;;5.43;1.10;;;;;;;22.29;47.06;95576.53;5033074;28;20025;-34
2022/09/27 10:43:56;;;;;;;2.67;0.90;;;;;;;22.58;47.04;95570.06;5033055;28;20428;-34
2022/09/27 10:46:30;;;;;;;2.20;0.70;;;;;;;22.81;46.84;95587.06;5032983;28;20029;-34
2022/09/27 10:49:47;;;;;;;1.95;0.90;;;;;;;22.89;46.64;95566.53;5033421;28;20389;-34
2022/09/27 10:52:23;;;;;;;2.63;0.88;;;;;;;22.95;46.61;95596.13;5031741;28;20040;-34
2022/09/27 10:55:03;;;;;;;3.33;1.00;;;;;;;23.10;46.46;95582.53;5032894;28;20026;-34
2022/09/27 10:57:30;;;;;;;2.33;0.93;;;;;;;23.02;46.47;95595.50;5036349;28;20047;-34
2022/09/27 11:00:04;;;;;;;3.97;1.10;;;;;;;22.83;46.67;95576.22;5036717;28;20160;-34
2022/09/27 11:02:33;;;;;;;2.53;0.88;;;;;;;22.88;46.91;95592.69;5037011;28;20044;-34
2022/09/27 11:05:07;;;;;;;1.95;1.00;;;;;;;22.93;46.50;95583.56;5036432;28;20462;-34
2022/09/27 11:07:36;;;;;;;3.38;0.90;;;;;;;22.99;46.83;95579.97;5036721;28;20111;-35
2022/09/27 11:10:21;;;;;;;2.50;0.90;;;;;;;23.03;46.32;95581.13;5036637;28;20032;-34
2022/09/27 11:13:05;;;;;;;3.25;1.08;;;;;;;23.05;46.51;95572.31;5036644;28;20035;-35
2022/09/27 11:15:41;;;;;;;3.38;0.90;;;;;;;23.11;44.58;95579.25;5036733;28;20439;-34
2022/09/27 11:18:56;;;;;;;4.18;1.33;;;;;;;22.57;45.69;95582.38;5035092;28;20029;-34
2022/09/27 11:21:56;;;;;;;2.58;0.70;;;;;;;22.57;46.21;95582.38;5013085;28;20041;-34
2022/09/27 11:24:47;;;;;;;3.38;1.02;;;;;;;22.90;46.02;95572.81;5036081;28;20512;-34
2022/09/27 11:27:24;;;;;;;3.35;0.90;;;;;;;23.01;44.97;95569.09;5036416;28;20021;-34
2022/09/27 11:30:02;;;;;;;2.10;0.90;;;;;;;22.89;45.89;95585.16;5036552;28;20029;-34
2022/09/27 11:32:45;;;;;;;2.53;0.80;;;;;;;22.98;45.71;95578.47;5036315;28;20017;-34
2022/09/27 11:35:55;;;;;;;2.00;0.73;;;;;;;22.86;46.29;95578.69;5036326;28;20030;-35
2022/09/27 11:38:40;;;;;;;3.15;0.93;;;;;;;22.92;46.15;95575.81;5035948;28;20054;-34
2022/09/27 11:41:28;;;;;;;1.83;0.80;;;;;;;22.96;46.26;95575.50;5035925;28;20028;-35
2022/09/27 11:44:45;;;;;;;7.22;1.10;;;;;;;21.99;47.31;95568.41;5036155;28;20025;-34
2022/09/27 11:47:29;;;;;;;5.68;1.10;;;;;;;22.56;46.08;95569.84;5034083;28;20037;-34
2022/09/27 11:50:01;;;;;;;6.18;1.00;;;;;;;22.68;45.35;95567.63;5033725;28;20068;-34
2022/09/27 11:52:44;;;;;;;7.15;1.85;;;;;;;22.72;45.62;95559.78;5033964;28;20025;-34
2022/09/27 11:55:26;;;;;;;4.55;0.90;;;;;;;22.83;45.54;95551.34;5033698;28;20021;-34
2022/09/27 11:58:12;;;;;;;2.83;0.85;;;;;;;22.86;45.77;95544.75;5033393;28;20077;-34
2022/09/27 12:00:54;;;;;;;3.38;1.00;;;;;;;22.74;45.95;95555.22;5020350;28;20044;-34
2022/09/27 12:03:28;;;;;;;3.17;1.05;;;;;;;22.83;45.83;95581.75;5031687;28;20128;-34